sensor_id;sensor_type;location;lat;lon;timestamp;P1;durP1;ratioP1;P2;durP2;ratioP2
32523;SDS011;18965;52.242;20.886;2023-05-10T00:02:11;312.35;;;91.72;;
32523;SDS011;18965;52.242;20.886;2023-05-10T00:04:37;298.23;;;89.80;;
32523;SDS011;18965;52.242;20.886;2023-05-10T00:07:02;304.40;;;90.07;;
32523;SDS011;18965;52.242;20.886;2023-05-10T00:09:28;305.92;;;88.97;;
32523;SDS011;18965;52.242;20.886;2023-05-10T00:11:54;318.95;;;94.57;;
32523;SDS011;18965;52.242;20.886;2023-05-10T00:14:23;296.10;;;89.93;;
32523;SDS011;18965;52.242;20.886;2023-05-10T00:16:49;293.58;;;89.03;;
32523;SDS011;18965;52.242;20.886;2023-05-10T00:19:15;307.15;;;91.40;;
32523;SDS011;18965;52.242;20.886;2023-05-10T00:21:41;300.25;;;89.57;;
32523;SDS011;18965;52.242;20.886;2023-05-10T00:24:07;316.67;;;92.15;;
32523;SDS011;18965;52.242;20.886;2023-05-10T00:26:33;297.98;;;90.13;;
32523;SDS011;18965;52.242;20.886;2023-05-10T00:28:59;292.05;;;87.60;;
32523;SDS011;18965;52.242;20.886;2023-05-10T00:31:25;298.70;;;89.80;;
32523;SDS011;18965;52.242;20.886;2023-05-10T00:33:51;301.75;;;90.18;;
32523;SDS011;18965;52.242;20.886;2023-05-10T00:36:17;302.33;;;90.15;;
32523;SDS011;18965;52.242;20.886;2023-05-10T00:38:43;296.60;;;89.78;;
32523;SDS011;18965;52.242;20.886;2023-05-10T00:41:09;297.45;;;91.22;;
32523;SDS011;18965;52.242;20.886;2023-05-10T00:43:37;290.02;;;88.43;;
32523;SDS011;18965;52.242;20.886;2023-05-10T00:46:03;294.45;;;90.65;;
32523;SDS011;18965;52.242;20.886;2023-05-10T00:48:29;309.75;;;91.03;;
32523;SDS011;18965;52.242;20.886;2023-05-10T00:50:55;300.23;;;89.35;;
32523;SDS011;18965;52.242;20.886;2023-05-10T00:53:21;291.15;;;86.20;;
32523;SDS011;18965;52.242;20.886;2023-05-10T00:55:47;317.85;;;92.45;;
32523;SDS011;18965;52.242;20.886;2023-05-10T00:58:14;292.92;;;89.05;;
32523;SDS011;18965;52.242;20.886;2023-05-10T01:00:41;321.17;;;93.95;;
32523;SDS011;18965;52.242;20.886;2023-05-10T01:03:09;292.55;;;88.00;;
32523;SDS011;18965;52.242;20.886;2023-05-10T01:05:36;324.58;;;93.22;;
32523;SDS011;18965;52.242;20.886;2023-05-10T01:08:02;294.73;;;87.63;;
32523;SDS011;18965;52.242;20.886;2023-05-10T01:10:28;297.10;;;88.20;;
32523;SDS011;18965;52.242;20.886;2023-05-10T01:12:55;289.17;;;87.50;;
32523;SDS011;18965;52.242;20.886;2023-05-10T01:15:21;286.45;;;87.50;;
32523;SDS011;18965;52.242;20.886;2023-05-10T01:17:48;295.58;;;90.88;;
32523;SDS011;18965;52.242;20.886;2023-05-10T01:20:14;299.35;;;88.72;;
32523;SDS011;18965;52.242;20.886;2023-05-10T01:22:59;312.55;;;93.25;;
32523;SDS011;18965;52.242;20.886;2023-05-10T01:34:30;292.77;;;88.03;;
32523;SDS011;18965;52.242;20.886;2023-05-10T01:37:07;301.65;;;90.35;;
32523;SDS011;18965;52.242;20.886;2023-05-10T01:39:49;310.95;;;90.43;;
32523;SDS011;18965;52.242;20.886;2023-05-10T01:42:29;294.80;;;88.13;;
32523;SDS011;18965;52.242;20.886;2023-05-10T01:45:04;298.67;;;88.78;;
32523;SDS011;18965;52.242;20.886;2023-05-10T01:48:02;297.35;;;86.63;;
32523;SDS011;18965;52.242;20.886;2023-05-10T01:50:31;251.70;;;69.33;;
32523;SDS011;18965;52.242;20.886;2023-05-10T01:52:59;310.10;;;88.90;;
32523;SDS011;18965;52.242;20.886;2023-05-10T01:55:28;285.00;;;84.15;;
32523;SDS011;18965;52.242;20.886;2023-05-10T01:58:19;297.92;;;86.93;;
32523;SDS011;18965;52.242;20.886;2023-05-10T02:01:03;296.30;;;89.05;;
32523;SDS011;18965;52.242;20.886;2023-05-10T02:03:29;287.38;;;86.80;;
32523;SDS011;18965;52.242;20.886;2023-05-10T02:05:57;328.77;;;91.72;;
32523;SDS011;18965;52.242;20.886;2023-05-10T02:08:23;322.13;;;91.32;;
32523;SDS011;18965;52.242;20.886;2023-05-10T02:10:50;292.63;;;87.18;;
32523;SDS011;18965;52.242;20.886;2023-05-10T02:13:19;290.63;;;85.13;;
32523;SDS011;18965;52.242;20.886;2023-05-10T02:15:48;296.02;;;86.78;;
32523;SDS011;18965;52.242;20.886;2023-05-10T02:18:14;287.65;;;87.38;;
32523;SDS011;18965;52.242;20.886;2023-05-10T02:20:42;310.95;;;89.63;;
32523;SDS011;18965;52.242;20.886;2023-05-10T02:23:08;294.58;;;88.18;;
32523;SDS011;18965;52.242;20.886;2023-05-10T02:25:36;295.02;;;87.03;;
32523;SDS011;18965;52.242;20.886;2023-05-10T02:28:04;284.98;;;83.90;;
32523;SDS011;18965;52.242;20.886;2023-05-10T02:30:32;295.17;;;87.38;;
32523;SDS011;18965;52.242;20.886;2023-05-10T02:33:00;328.83;;;94.22;;
32523;SDS011;18965;52.242;20.886;2023-05-10T02:35:27;281.88;;;84.60;;
32523;SDS011;18965;52.242;20.886;2023-05-10T02:37:54;290.85;;;86.18;;
32523;SDS011;18965;52.242;20.886;2023-05-10T02:40:21;289.77;;;86.97;;
32523;SDS011;18965;52.242;20.886;2023-05-10T02:42:47;300.20;;;88.60;;
32523;SDS011;18965;52.242;20.886;2023-05-10T02:45:17;299.05;;;88.13;;
32523;SDS011;18965;52.242;20.886;2023-05-10T02:47:45;296.17;;;87.13;;
32523;SDS011;18965;52.242;20.886;2023-05-10T02:50:11;298.15;;;86.90;;
32523;SDS011;18965;52.242;20.886;2023-05-10T02:52:42;293.52;;;86.60;;
32523;SDS011;18965;52.242;20.886;2023-05-10T02:55:12;283.48;;;84.40;;
32523;SDS011;18965;52.242;20.886;2023-05-10T02:57:43;290.30;;;84.85;;
32523;SDS011;18965;52.242;20.886;2023-05-10T03:00:15;295.60;;;84.95;;
32523;SDS011;18965;52.242;20.886;2023-05-10T03:02:42;308.10;;;89.10;;
32523;SDS011;18965;52.242;20.886;2023-05-10T03:05:07;293.70;;;86.00;;
32523;SDS011;18965;52.242;20.886;2023-05-10T03:07:33;293.98;;;87.22;;
32523;SDS011;18965;52.242;20.886;2023-05-10T03:10:00;315.02;;;95.35;;
32523;SDS011;18965;52.242;20.886;2023-05-10T03:12:47;287.63;;;84.18;;
32523;SDS011;18965;52.242;20.886;2023-05-10T03:18:48;319.70;;;95.28;;
32523;SDS011;18965;52.242;20.886;2023-05-10T03:21:29;284.52;;;85.15;;
32523;SDS011;18965;52.242;20.886;2023-05-10T03:26:36;296.90;;;87.70;;
32523;SDS011;18965;52.242;20.886;2023-05-10T03:29:03;307.60;;;88.50;;
32523;SDS011;18965;52.242;20.886;2023-05-10T03:31:30;294.10;;;86.80;;
32523;SDS011;18965;52.242;20.886;2023-05-10T03:33:57;303.92;;;89.80;;
32523;SDS011;18965;52.242;20.886;2023-05-10T03:36:26;298.92;;;89.45;;
32523;SDS011;18965;52.242;20.886;2023-05-10T03:38:53;306.30;;;88.90;;
32523;SDS011;18965;52.242;20.886;2023-05-10T03:41:19;308.35;;;90.95;;
32523;SDS011;18965;52.242;20.886;2023-05-10T03:43:51;281.88;;;87.18;;
32523;SDS011;18965;52.242;20.886;2023-05-10T03:46:51;309.20;;;90.55;;
32523;SDS011;18965;52.242;20.886;2023-05-10T03:49:30;282.83;;;86.00;;
32523;SDS011;18965;52.242;20.886;2023-05-10T03:51:56;288.52;;;85.25;;
32523;SDS011;18965;52.242;20.886;2023-05-10T03:54:22;284.10;;;85.10;;
32523;SDS011;18965;52.242;20.886;2023-05-10T03:56:48;298.80;;;86.88;;
32523;SDS011;18965;52.242;20.886;2023-05-10T03:59:14;322.95;;;90.93;;
32523;SDS011;18965;52.242;20.886;2023-05-10T04:01:40;303.80;;;87.50;;
32523;SDS011;18965;52.242;20.886;2023-05-10T04:04:05;293.48;;;86.65;;
32523;SDS011;18965;52.242;20.886;2023-05-10T04:06:31;293.63;;;87.47;;
32523;SDS011;18965;52.242;20.886;2023-05-10T04:08:57;281.70;;;85.13;;
32523;SDS011;18965;52.242;20.886;2023-05-10T04:11:25;285.17;;;84.40;;
32523;SDS011;18965;52.242;20.886;2023-05-10T04:13:51;309.55;;;90.07;;
32523;SDS011;18965;52.242;20.886;2023-05-10T04:16:17;311.10;;;90.55;;
32523;SDS011;18965;52.242;20.886;2023-05-10T04:18:43;339.50;;;92.88;;
32523;SDS011;18965;52.242;20.886;2023-05-10T04:21:12;300.90;;;87.95;;
32523;SDS011;18965;52.242;20.886;2023-05-10T04:23:41;293.70;;;86.35;;
32523;SDS011;18965;52.242;20.886;2023-05-10T04:26:07;287.17;;;87.28;;
32523;SDS011;18965;52.242;20.886;2023-05-10T04:28:33;295.20;;;86.78;;
32523;SDS011;18965;52.242;20.886;2023-05-10T04:31:01;297.35;;;86.82;;
32523;SDS011;18965;52.242;20.886;2023-05-10T04:33:34;303.80;;;88.55;;
32523;SDS011;18965;52.242;20.886;2023-05-10T04:36:00;336.88;;;98.97;;
32523;SDS011;18965;52.242;20.886;2023-05-10T04:38:27;311.05;;;90.55;;
32523;SDS011;18965;52.242;20.886;2023-05-10T04:40:53;303.23;;;89.05;;
32523;SDS011;18965;52.242;20.886;2023-05-10T04:43:19;304.75;;;88.20;;
32523;SDS011;18965;52.242;20.886;2023-05-10T04:45:45;318.75;;;90.95;;
32523;SDS011;18965;52.242;20.886;2023-05-10T04:48:16;309.80;;;90.05;;
32523;SDS011;18965;52.242;20.886;2023-05-10T04:50:42;321.88;;;93.80;;
32523;SDS011;18965;52.242;20.886;2023-05-10T04:53:08;383.13;;;105.78;;
32523;SDS011;18965;52.242;20.886;2023-05-10T04:55:35;322.75;;;94.95;;
32523;SDS011;18965;52.242;20.886;2023-05-10T04:58:00;304.60;;;91.28;;
32523;SDS011;18965;52.242;20.886;2023-05-10T05:00:27;324.98;;;96.07;;
32523;SDS011;18965;52.242;20.886;2023-05-10T05:02:53;334.38;;;98.07;;
32523;SDS011;18965;52.242;20.886;2023-05-10T05:05:19;339.60;;;100.90;;
32523;SDS011;18965;52.242;20.886;2023-05-10T05:07:51;326.05;;;101.38;;
32523;SDS011;18965;52.242;20.886;2023-05-10T05:10:18;313.60;;;103.35;;
32523;SDS011;18965;52.242;20.886;2023-05-10T05:12:46;335.83;;;106.57;;
32523;SDS011;18965;52.242;20.886;2023-05-10T05:15:13;315.05;;;107.78;;
32523;SDS011;18965;52.242;20.886;2023-05-10T05:17:42;319.00;;;100.67;;
32523;SDS011;18965;52.242;20.886;2023-05-10T05:20:08;285.23;;;96.13;;
32523;SDS011;18965;52.242;20.886;2023-05-10T05:22:35;306.73;;;104.68;;
32523;SDS011;18965;52.242;20.886;2023-05-10T05:25:02;301.38;;;99.18;;
32523;SDS011;18965;52.242;20.886;2023-05-10T05:27:37;305.27;;;108.03;;
32523;SDS011;18965;52.242;20.886;2023-05-10T05:30:03;282.20;;;106.40;;
32523;SDS011;18965;52.242;20.886;2023-05-10T05:32:30;318.90;;;103.97;;
32523;SDS011;18965;52.242;20.886;2023-05-10T05:34:55;312.02;;;101.57;;
32523;SDS011;18965;52.242;20.886;2023-05-10T05:37:21;282.50;;;103.00;;
32523;SDS011;18965;52.242;20.886;2023-05-10T05:39:52;248.43;;;107.35;;
32523;SDS011;18965;52.242;20.886;2023-05-10T05:42:20;202.27;;;101.53;;
32523;SDS011;18965;52.242;20.886;2023-05-10T05:44:46;205.80;;;105.38;;
32523;SDS011;18965;52.242;20.886;2023-05-10T05:47:11;176.70;;;95.32;;
32523;SDS011;18965;52.242;20.886;2023-05-10T05:49:41;161.98;;;90.72;;
32523;SDS011;18965;52.242;20.886;2023-05-10T05:52:11;118.45;;;77.47;;
32523;SDS011;18965;52.242;20.886;2023-05-10T05:54:37;107.00;;;77.18;;
32523;SDS011;18965;52.242;20.886;2023-05-10T05:57:03;116.47;;;79.78;;
32523;SDS011;18965;52.242;20.886;2023-05-10T05:59:29;110.80;;;78.45;;
32523;SDS011;18965;52.242;20.886;2023-05-10T06:01:54;147.23;;;83.10;;
32523;SDS011;18965;52.242;20.886;2023-05-10T06:04:20;142.52;;;81.50;;
32523;SDS011;18965;52.242;20.886;2023-05-10T06:06:46;123.47;;;82.20;;
32523;SDS011;18965;52.242;20.886;2023-05-10T06:09:12;105.05;;;80.47;;
32523;SDS011;18965;52.242;20.886;2023-05-10T06:11:52;146.05;;;81.43;;
32523;SDS011;18965;52.242;20.886;2023-05-10T06:14:19;97.13;;;71.28;;
32523;SDS011;18965;52.242;20.886;2023-05-10T06:16:46;73.78;;;65.53;;
32523;SDS011;18965;52.242;20.886;2023-05-10T06:19:11;71.13;;;62.40;;
32523;SDS011;18965;52.242;20.886;2023-05-10T06:21:37;66.70;;;56.38;;
32523;SDS011;18965;52.242;20.886;2023-05-10T06:24:03;48.55;;;36.55;;
32523;SDS011;18965;52.242;20.886;2023-05-10T06:26:30;37.60;;;26.73;;
32523;SDS011;18965;52.242;20.886;2023-05-10T06:28:59;35.63;;;32.55;;
32523;SDS011;18965;52.242;20.886;2023-05-10T06:31:25;57.45;;;45.13;;
32523;SDS011;18965;52.242;20.886;2023-05-10T06:33:52;61.85;;;51.92;;
32523;SDS011;18965;52.242;20.886;2023-05-10T06:36:17;66.35;;;52.53;;
32523;SDS011;18965;52.242;20.886;2023-05-10T06:38:43;59.92;;;53.35;;
32523;SDS011;18965;52.242;20.886;2023-05-10T06:41:09;65.00;;;58.25;;
32523;SDS011;18965;52.242;20.886;2023-05-10T06:43:35;111.63;;;66.72;;
32523;SDS011;18965;52.242;20.886;2023-05-10T06:46:06;79.53;;;62.80;;
32523;SDS011;18965;52.242;20.886;2023-05-10T06:48:32;87.15;;;64.97;;
32523;SDS011;18965;52.242;20.886;2023-05-10T06:51:00;101.95;;;71.78;;
32523;SDS011;18965;52.242;20.886;2023-05-10T06:53:27;89.40;;;70.13;;
32523;SDS011;18965;52.242;20.886;2023-05-10T06:55:53;80.45;;;70.68;;
32523;SDS011;18965;52.242;20.886;2023-05-10T06:58:20;123.90;;;110.82;;
32523;SDS011;18965;52.242;20.886;2023-05-10T07:00:48;92.68;;;76.70;;
32523;SDS011;18965;52.242;20.886;2023-05-10T07:03:14;89.43;;;68.80;;
32523;SDS011;18965;52.242;20.886;2023-05-10T07:05:40;97.88;;;70.38;;
32523;SDS011;18965;52.242;20.886;2023-05-10T07:08:06;101.40;;;90.45;;
32523;SDS011;18965;52.242;20.886;2023-05-10T07:10:32;90.82;;;70.30;;
32523;SDS011;18965;52.242;20.886;2023-05-10T07:12:58;68.85;;;61.65;;
32523;SDS011;18965;52.242;20.886;2023-05-10T07:15:24;73.80;;;61.55;;
32523;SDS011;18965;52.242;20.886;2023-05-10T07:17:51;61.50;;;54.80;;
32523;SDS011;18965;52.242;20.886;2023-05-10T07:20:17;58.50;;;49.38;;
32523;SDS011;18965;52.242;20.886;2023-05-10T07:22:42;56.42;;;50.28;;
32523;SDS011;18965;52.242;20.886;2023-05-10T07:25:08;53.72;;;47.05;;
32523;SDS011;18965;52.242;20.886;2023-05-10T07:27:34;54.78;;;46.95;;
32523;SDS011;18965;52.242;20.886;2023-05-10T07:30:06;46.25;;;41.03;;
32523;SDS011;18965;52.242;20.886;2023-05-10T07:32:33;65.78;;;39.25;;
32523;SDS011;18965;52.242;20.886;2023-05-10T07:34:59;41.00;;;32.05;;
32523;SDS011;18965;52.242;20.886;2023-05-10T07:37:25;34.90;;;31.00;;
32523;SDS011;18965;52.242;20.886;2023-05-10T07:39:53;43.40;;;29.10;;
32523;SDS011;18965;52.242;20.886;2023-05-10T07:42:19;33.50;;;26.88;;
32523;SDS011;18965;52.242;20.886;2023-05-10T07:44:45;50.80;;;30.40;;
32523;SDS011;18965;52.242;20.886;2023-05-10T07:47:11;34.85;;;31.05;;
32523;SDS011;18965;52.242;20.886;2023-05-10T07:49:37;43.72;;;30.73;;
32523;SDS011;18965;52.242;20.886;2023-05-10T07:52:03;40.83;;;30.27;;
32523;SDS011;18965;52.242;20.886;2023-05-10T07:54:32;74.57;;;38.45;;
32523;SDS011;18965;52.242;20.886;2023-05-10T07:56:59;40.38;;;32.78;;
32523;SDS011;18965;52.242;20.886;2023-05-10T07:59:25;40.20;;;35.95;;
32523;SDS011;18965;52.242;20.886;2023-05-10T08:01:51;65.90;;;45.53;;
32523;SDS011;18965;52.242;20.886;2023-05-10T08:04:16;68.05;;;52.30;;
32523;SDS011;18965;52.242;20.886;2023-05-10T08:06:43;86.22;;;56.75;;
32523;SDS011;18965;52.242;20.886;2023-05-10T08:09:09;59.80;;;53.67;;
32523;SDS011;18965;52.242;20.886;2023-05-10T08:11:37;54.67;;;48.97;;
32523;SDS011;18965;52.242;20.886;2023-05-10T08:14:03;69.15;;;51.55;;
32523;SDS011;18965;52.242;20.886;2023-05-10T08:16:29;73.78;;;53.28;;
32523;SDS011;18965;52.242;20.886;2023-05-10T08:18:57;60.03;;;48.40;;
32523;SDS011;18965;52.242;20.886;2023-05-10T08:21:24;78.53;;;54.28;;
32523;SDS011;18965;52.242;20.886;2023-05-10T08:23:49;55.97;;;50.15;;
32523;SDS011;18965;52.242;20.886;2023-05-10T08:26:15;62.10;;;51.50;;
32523;SDS011;18965;52.242;20.886;2023-05-10T08:28:41;60.42;;;48.40;;
32523;SDS011;18965;52.242;20.886;2023-05-10T08:31:07;50.60;;;44.17;;
32523;SDS011;18965;52.242;20.886;2023-05-10T08:33:32;54.78;;;44.75;;
32523;SDS011;18965;52.242;20.886;2023-05-10T08:36:02;60.08;;;43.35;;
32523;SDS011;18965;52.242;20.886;2023-05-10T08:38:27;50.00;;;35.93;;
32523;SDS011;18965;52.242;20.886;2023-05-10T08:40:56;38.25;;;34.25;;
32523;SDS011;18965;52.242;20.886;2023-05-10T08:43:23;98.80;;;51.55;;
32523;SDS011;18965;52.242;20.886;2023-05-10T08:48:25;34.83;;;15.43;;
32523;SDS011;18965;52.242;20.886;2023-05-10T08:50:53;25.75;;;23.17;;
32523;SDS011;18965;52.242;20.886;2023-05-10T08:53:24;34.92;;;31.65;;
32523;SDS011;18965;52.242;20.886;2023-05-10T08:55:52;68.97;;;47.45;;
32523;SDS011;18965;52.242;20.886;2023-05-10T08:58:18;49.08;;;43.97;;
32523;SDS011;18965;52.242;20.886;2023-05-10T09:00:45;58.25;;;51.92;;
32523;SDS011;18965;52.242;20.886;2023-05-10T09:03:11;56.67;;;50.85;;
32523;SDS011;18965;52.242;20.886;2023-05-10T09:05:38;76.25;;;57.00;;
32523;SDS011;18965;52.242;20.886;2023-05-10T09:08:04;58.08;;;52.97;;
32523;SDS011;18965;52.242;20.886;2023-05-10T09:10:31;64.57;;;57.78;;
32523;SDS011;18965;52.242;20.886;2023-05-10T09:13:00;60.13;;;54.05;;
32523;SDS011;18965;52.242;20.886;2023-05-10T09:15:27;70.40;;;57.90;;
32523;SDS011;18965;52.242;20.886;2023-05-10T09:17:53;68.68;;;59.08;;
32523;SDS011;18965;52.242;20.886;2023-05-10T09:20:20;57.38;;;52.20;;
32523;SDS011;18965;52.242;20.886;2023-05-10T09:22:46;58.80;;;53.50;;
32523;SDS011;18965;52.242;20.886;2023-05-10T09:25:13;61.42;;;55.42;;
32523;SDS011;18965;52.242;20.886;2023-05-10T09:27:41;66.05;;;58.70;;
32523;SDS011;18965;52.242;20.886;2023-05-10T09:30:25;102.75;;;61.58;;
32523;SDS011;18965;52.242;20.886;2023-05-10T09:32:52;54.85;;;49.38;;
32523;SDS011;18965;52.242;20.886;2023-05-10T09:35:23;52.88;;;47.80;;
32523;SDS011;18965;52.242;20.886;2023-05-10T09:37:51;51.92;;;46.97;;
32523;SDS011;18965;52.242;20.886;2023-05-10T09:40:22;48.65;;;44.03;;
32523;SDS011;18965;52.242;20.886;2023-05-10T09:45:36;84.32;;;57.45;;
32523;SDS011;18965;52.242;20.886;2023-05-10T09:48:06;67.95;;;60.03;;
32523;SDS011;18965;52.242;20.886;2023-05-10T09:50:32;86.80;;;64.97;;
32523;SDS011;18965;52.242;20.886;2023-05-10T09:53:02;61.03;;;54.45;;
32523;SDS011;18965;52.242;20.886;2023-05-10T09:58:04;52.60;;;47.42;;
32523;SDS011;18965;52.242;20.886;2023-05-10T10:00:42;59.03;;;51.08;;
32523;SDS011;18965;52.242;20.886;2023-05-10T10:03:20;49.28;;;45.33;;
32523;SDS011;18965;52.242;20.886;2023-05-10T10:05:46;54.35;;;48.60;;
32523;SDS011;18965;52.242;20.886;2023-05-10T10:08:13;61.35;;;54.75;;
32523;SDS011;18965;52.242;20.886;2023-05-10T10:10:40;67.50;;;59.92;;
32523;SDS011;18965;52.242;20.886;2023-05-10T10:13:16;80.13;;;63.67;;
32523;SDS011;18965;52.242;20.886;2023-05-10T10:15:42;81.38;;;65.78;;
32523;SDS011;18965;52.242;20.886;2023-05-10T10:18:12;63.63;;;57.30;;
32523;SDS011;18965;52.242;20.886;2023-05-10T10:20:40;98.82;;;61.83;;
32523;SDS011;18965;52.242;20.886;2023-05-10T10:23:08;67.50;;;60.25;;
32523;SDS011;18965;52.242;20.886;2023-05-10T10:25:34;66.78;;;59.72;;
32523;SDS011;18965;52.242;20.886;2023-05-10T10:33:44;75.85;;;64.63;;
32523;SDS011;18965;52.242;20.886;2023-05-10T10:36:22;75.85;;;67.93;;
32523;SDS011;18965;52.242;20.886;2023-05-10T10:41:33;98.03;;;77.00;;
32523;SDS011;18965;52.242;20.886;2023-05-10T10:55:00;66.60;;;59.60;;
32523;SDS011;18965;52.242;20.886;2023-05-10T10:57:28;61.10;;;54.92;;
32523;SDS011;18965;52.242;20.886;2023-05-10T11:03:07;58.05;;;50.20;;
32523;SDS011;18965;52.242;20.886;2023-05-10T11:05:45;89.07;;;61.05;;
32523;SDS011;18965;52.242;20.886;2023-05-10T11:15:55;98.15;;;69.72;;
32523;SDS011;18965;52.242;20.886;2023-05-10T11:18:25;99.28;;;70.65;;
32523;SDS011;18965;52.242;20.886;2023-05-10T11:21:01;69.05;;;62.00;;
32523;SDS011;18965;52.242;20.886;2023-05-10T11:23:47;73.47;;;66.20;;
32523;SDS011;18965;52.242;20.886;2023-05-10T11:26:19;70.57;;;62.95;;
32523;SDS011;18965;52.242;20.886;2023-05-10T11:28:50;77.15;;;61.17;;
32523;SDS011;18965;52.242;20.886;2023-05-10T11:31:18;93.32;;;63.15;;
32523;SDS011;18965;52.242;20.886;2023-05-10T11:33:52;74.22;;;58.65;;
32523;SDS011;18965;52.242;20.886;2023-05-10T11:36:20;61.38;;;53.67;;
32523;SDS011;18965;52.242;20.886;2023-05-10T11:38:49;85.40;;;54.23;;
32523;SDS011;18965;52.242;20.886;2023-05-10T11:41:15;52.17;;;46.67;;
32523;SDS011;18965;52.242;20.886;2023-05-10T11:43:43;45.33;;;40.65;;
32523;SDS011;18965;52.242;20.886;2023-05-10T11:46:12;63.47;;;44.42;;
32523;SDS011;18965;52.242;20.886;2023-05-10T11:48:38;51.17;;;46.13;;
32523;SDS011;18965;52.242;20.886;2023-05-10T11:51:05;72.85;;;54.80;;
32523;SDS011;18965;52.242;20.886;2023-05-10T11:53:32;51.08;;;45.83;;
32523;SDS011;18965;52.242;20.886;2023-05-10T11:56:02;49.65;;;45.58;;
32523;SDS011;18965;52.242;20.886;2023-05-10T11:58:31;59.83;;;50.55;;
32523;SDS011;18965;52.242;20.886;2023-05-10T12:01:01;45.72;;;41.25;;
32523;SDS011;18965;52.242;20.886;2023-05-10T12:03:28;63.35;;;49.05;;
32523;SDS011;18965;52.242;20.886;2023-05-10T12:05:55;85.22;;;53.88;;
32523;SDS011;18965;52.242;20.886;2023-05-10T12:08:23;54.25;;;47.97;;
32523;SDS011;18965;52.242;20.886;2023-05-10T12:10:50;58.70;;;50.75;;
32523;SDS011;18965;52.242;20.886;2023-05-10T12:13:19;56.15;;;51.22;;
32523;SDS011;18965;52.242;20.886;2023-05-10T12:15:45;58.65;;;52.20;;
32523;SDS011;18965;52.242;20.886;2023-05-10T12:18:12;55.88;;;50.25;;
32523;SDS011;18965;52.242;20.886;2023-05-10T12:20:39;71.35;;;55.17;;
32523;SDS011;18965;52.242;20.886;2023-05-10T12:23:05;60.67;;;54.30;;
32523;SDS011;18965;52.242;20.886;2023-05-10T12:25:33;63.58;;;54.90;;
32523;SDS011;18965;52.242;20.886;2023-05-10T12:28:03;56.13;;;50.97;;
32523;SDS011;18965;52.242;20.886;2023-05-10T12:30:32;57.83;;;52.13;;
32523;SDS011;18965;52.242;20.886;2023-05-10T12:33:10;57.25;;;51.85;;
32523;SDS011;18965;52.242;20.886;2023-05-10T12:35:58;92.57;;;55.78;;
32523;SDS011;18965;52.242;20.886;2023-05-10T12:38:25;43.58;;;39.58;;
32523;SDS011;18965;52.242;20.886;2023-05-10T12:40:59;51.35;;;41.03;;
32523;SDS011;18965;52.242;20.886;2023-05-10T12:43:26;40.42;;;35.63;;
32523;SDS011;18965;52.242;20.886;2023-05-10T12:45:55;41.28;;;37.28;;
32523;SDS011;18965;52.242;20.886;2023-05-10T12:48:21;37.67;;;34.27;;
32523;SDS011;18965;52.242;20.886;2023-05-10T12:50:47;37.92;;;34.40;;
32523;SDS011;18965;52.242;20.886;2023-05-10T12:53:14;61.58;;;41.40;;
32523;SDS011;18965;52.242;20.886;2023-05-10T12:55:43;47.92;;;40.22;;
32523;SDS011;18965;52.242;20.886;2023-05-10T12:58:09;53.55;;;42.10;;
32523;SDS011;18965;52.242;20.886;2023-05-10T13:00:35;60.63;;;42.85;;
32523;SDS011;18965;52.242;20.886;2023-05-10T13:03:03;84.75;;;51.83;;
32523;SDS011;18965;52.242;20.886;2023-05-10T13:05:31;57.97;;;51.78;;
32523;SDS011;18965;52.242;20.886;2023-05-10T13:08:00;69.05;;;61.60;;
32523;SDS011;18965;52.242;20.886;2023-05-10T13:10:28;107.13;;;76.47;;
32523;SDS011;18965;52.242;20.886;2023-05-10T13:12:54;125.55;;;83.35;;
32523;SDS011;18965;52.242;20.886;2023-05-10T13:15:20;141.20;;;91.63;;
32523;SDS011;18965;52.242;20.886;2023-05-10T13:17:46;196.27;;;104.35;;
32523;SDS011;18965;52.242;20.886;2023-05-10T13:20:11;205.57;;;102.20;;
32523;SDS011;18965;52.242;20.886;2023-05-10T13:22:37;131.70;;;87.50;;
32523;SDS011;18965;52.242;20.886;2023-05-10T13:25:03;168.82;;;98.47;;
32523;SDS011;18965;52.242;20.886;2023-05-10T13:27:29;84.80;;;74.50;;
32523;SDS011;18965;52.242;20.886;2023-05-10T13:29:55;70.60;;;56.92;;
32523;SDS011;18965;52.242;20.886;2023-05-10T13:32:21;42.78;;;37.28;;
32523;SDS011;18965;52.242;20.886;2023-05-10T13:34:47;41.90;;;35.33;;
32523;SDS011;18965;52.242;20.886;2023-05-10T13:37:12;39.20;;;30.88;;
32523;SDS011;18965;52.242;20.886;2023-05-10T13:39:41;43.45;;;39.38;;
32523;SDS011;18965;52.242;20.886;2023-05-10T13:42:07;42.10;;;37.75;;
32523;SDS011;18965;52.242;20.886;2023-05-10T13:44:33;38.20;;;34.53;;
32523;SDS011;18965;52.242;20.886;2023-05-10T13:46:59;49.08;;;38.97;;
32523;SDS011;18965;52.242;20.886;2023-05-10T13:49:24;53.55;;;38.83;;
32523;SDS011;18965;52.242;20.886;2023-05-10T13:51:50;46.78;;;40.92;;
32523;SDS011;18965;52.242;20.886;2023-05-10T13:54:17;42.58;;;35.60;;
32523;SDS011;18965;52.242;20.886;2023-05-10T13:56:45;42.38;;;38.15;;
32523;SDS011;18965;52.242;20.886;2023-05-10T13:59:12;46.63;;;42.42;;
32523;SDS011;18965;52.242;20.886;2023-05-10T14:01:39;48.80;;;43.47;;
32523;SDS011;18965;52.242;20.886;2023-05-10T14:04:05;49.45;;;44.92;;
32523;SDS011;18965;52.242;20.886;2023-05-10T14:06:32;57.28;;;42.47;;
32523;SDS011;18965;52.242;20.886;2023-05-10T14:08:58;38.08;;;34.47;;
32523;SDS011;18965;52.242;20.886;2023-05-10T14:11:24;36.70;;;33.30;;
32523;SDS011;18965;52.242;20.886;2023-05-10T14:13:50;34.92;;;31.27;;
32523;SDS011;18965;52.242;20.886;2023-05-10T14:16:16;42.65;;;38.28;;
32523;SDS011;18965;52.242;20.886;2023-05-10T14:18:41;70.18;;;42.17;;
32523;SDS011;18965;52.242;20.886;2023-05-10T14:21:07;35.55;;;31.88;;
32523;SDS011;18965;52.242;20.886;2023-05-10T14:23:33;55.85;;;31.52;;
32523;SDS011;18965;52.242;20.886;2023-05-10T14:25:58;28.00;;;25.15;;
32523;SDS011;18965;52.242;20.886;2023-05-10T14:28:24;30.80;;;24.55;;
32523;SDS011;18965;52.242;20.886;2023-05-10T14:30:50;30.02;;;27.25;;
32523;SDS011;18965;52.242;20.886;2023-05-10T14:33:16;27.05;;;24.60;;
32523;SDS011;18965;52.242;20.886;2023-05-10T14:35:45;43.95;;;16.27;;
32523;SDS011;18965;52.242;20.886;2023-05-10T14:38:12;39.65;;;27.77;;
32523;SDS011;18965;52.242;20.886;2023-05-10T14:40:38;35.38;;;25.67;;
32523;SDS011;18965;52.242;20.886;2023-05-10T14:43:03;22.55;;;20.40;;
32523;SDS011;18965;52.242;20.886;2023-05-10T14:45:30;48.83;;;26.45;;
32523;SDS011;18965;52.242;20.886;2023-05-10T14:47:56;56.72;;;28.10;;
32523;SDS011;18965;52.242;20.886;2023-05-10T14:50:22;38.15;;;28.00;;
32523;SDS011;18965;52.242;20.886;2023-05-10T14:52:48;23.13;;;21.17;;
32523;SDS011;18965;52.242;20.886;2023-05-10T14:55:15;45.55;;;30.65;;
32523;SDS011;18965;52.242;20.886;2023-05-10T14:57:41;55.53;;;32.20;;
32523;SDS011;18965;52.242;20.886;2023-05-10T15:00:09;38.85;;;34.92;;
32523;SDS011;18965;52.242;20.886;2023-05-10T15:02:35;42.22;;;37.83;;